Observation data for Reese Center on 05/27/2019      Previous  Date  Next       Current Mesonet Observations  Soil Data  Daily Summary Page  Observations in Plain Language
KREE 270500Z 16013KT 20/17 A2989 RMK A01 T02040171  RH  084%=      5-min Rain = 0
KREE 270505Z 16014KT 20/17 A2988 RMK A01 T02030171  RH  084%=      5-min Rain = 0
KREE 270510Z 17013KT 20/17 A2988 RMK A01 T02040172  RH  084%=      5-min Rain = 0
KREE 270515Z 17012KT 20/17 A2988 RMK A01 T02030171  RH  084%=      5-min Rain = 0
KREE 270520Z 17011KT 20/17 A2989 RMK A01 T02010171  RH  085%=      5-min Rain = 0
KREE 270525Z 17011KT 20/17 A2988 RMK A01 T02010171  RH  085%=      5-min Rain = 0
KREE 270530Z 17009KT 20/17 A2989 RMK A01 T02000171  RH  085%=      5-min Rain = 0
KREE 270535Z 24008KT 20/17 A2991 RMK A01 T01970170  RH  086%=      5-min Rain = 0
KREE 270540Z 28013KT 19/17 A2993 RMK A01 T01930170  RH  088%=      5-min Rain = 0
KREE 270545Z 25006KT 19/17 A2992 RMK A01 T01940170  RH  088%=      5-min Rain = 0
KREE 270550Z 20007KT 20/17 A2991 RMK A01 T01950170  RH  088%=      5-min Rain = 0
KREE 270555Z 23007KT 19/17 A2991 RMK A01 T01930169  RH  088%=      5-min Rain = 0
KREE 270600Z 23008KT 19/17 A2991 RMK A01 T01900168  RH  089%=      5-min Rain = 0
KREE 270605Z 21008KT 19/17 A2991 RMK A01 T01890167  RH  089%=      5-min Rain = 0
KREE 270610Z 21007KT 19/17 A2991 RMK A01 T01890167  RH  089%=      5-min Rain = 0
KREE 270615Z 20006KT 19/17 A2991 RMK A01 T01890168  RH  089%=      5-min Rain = 0
KREE 270620Z 19007KT 19/17 A2991 RMK A01 T01910168  RH  089%=      5-min Rain = 0
KREE 270625Z 20007G12KT 19/17 A2991 RMK A01 T01900167  RH  089%=      5-min Rain = 0
KREE 270630Z 19008KT 19/17 A299 RMK A01 T01910167  RH  088%=      5-min Rain = 0
KREE 270635Z 19008KT 19/17 A299 RMK A01 T01900167  RH  088%=      5-min Rain = 0
KREE 270640Z 19008KT 19/17 A299 RMK A01 T01880166  RH  089%=      5-min Rain = 0
KREE 270645Z 19010KT 19/17 A299 RMK A01 T01870166  RH  090%=      5-min Rain = 0
KREE 270650Z 20011KT 19/17 A2989 RMK A01 T01870166  RH  090%=      5-min Rain = 0
KREE 270655Z 19011KT 19/17 A2989 RMK A01 T01870166  RH  090%=      5-min Rain = 0
KREE 270700Z 19010KT 19/17 A2989 RMK A01 T01860166  RH  090%=      5-min Rain = 0
KREE 270705Z 19010KT 19/17 A2989 RMK A01 T01850165  RH  090%=      5-min Rain = 0
KREE 270710Z 19008KT 18/17 A2989 RMK A01 T01840165  RH  091%=      5-min Rain = 0
KREE 270715Z 19007KT 18/17 A2989 RMK A01 T01840165  RH  091%=      5-min Rain = 0
KREE 270720Z 18007KT 18/16 A2989 RMK A01 T01830164  RH  091%=      5-min Rain = 0
KREE 270725Z 18007KT 18/16 A2989 RMK A01 T01820164  RH  091%=      5-min Rain = 0
KREE 270730Z 18007KT 18/16 A2989 RMK A01 T01820164  RH  091%=      5-min Rain = 0
KREE 270735Z 18007KT 18/16 A2989 RMK A01 T01810163  RH  092%=      5-min Rain = 0
KREE 270740Z 18007KT 18/16 A2988 RMK A01 T01800163  RH  092%=      5-min Rain = 0
KREE 270745Z 17007KT 18/16 A2988 RMK A01 T01790163  RH  092%=      5-min Rain = 0
KREE 270750Z 17008KT 18/16 A2988 RMK A01 T01790164  RH  093%=      5-min Rain = 0
KREE 270755Z 17007KT 18/16 A2988 RMK A01 T01790163  RH  093%=      5-min Rain = 0
KREE 270800Z 17007KT 18/16 A2988 RMK A01 T01790163  RH  093%=      5-min Rain = 0
KREE 270805Z 17008KT 18/16 A2988 RMK A01 T01780163  RH  093%=      5-min Rain = 0
KREE 270810Z 17009KT 18/16 A2987 RMK A01 T01790164  RH  093%=      5-min Rain = 0
KREE 270815Z 16009KT 18/16 A2987 RMK A01 T01800164  RH  093%=      5-min Rain = 0
KREE 270820Z 16009KT 18/16 A2987 RMK A01 T01800164  RH  092%=      5-min Rain = 0
KREE 270825Z 17009KT 18/16 A2987 RMK A01 T01810164  RH  092%=      5-min Rain = 0
KREE 270830Z 17009KT 18/16 A2987 RMK A01 T01810164  RH  092%=      5-min Rain = 0
KREE 270835Z 17009KT 18/16 A2987 RMK A01 T01820164  RH  091%=      5-min Rain = 0
KREE 270840Z 17009KT 18/16 A2986 RMK A01 T01820164  RH  091%=      5-min Rain = 0
KREE 270845Z 17009KT 18/16 A2986 RMK A01 T01820163  RH  091%=      5-min Rain = 0
KREE 270850Z 17010KT 18/16 A2986 RMK A01 T01830163  RH  090%=      5-min Rain = 0
KREE 270855Z 18010KT 18/16 A2986 RMK A01 T01840163  RH  089%=      5-min Rain = 0
KREE 270900Z 18011KT 19/16 A2986 RMK A01 T01860164  RH  089%=      5-min Rain = 0
KREE 270905Z 18011KT 19/16 A2986 RMK A01 T01870164  RH  088%=      5-min Rain = 0
KREE 270910Z 18011KT 19/16 A2986 RMK A01 T01870164  RH  088%=      5-min Rain = 0
KREE 270915Z 18012KT 19/16 A2985 RMK A01 T01880164  RH  088%=      5-min Rain = 0
KREE 270920Z 18012KT 19/16 A2985 RMK A01 T01870164  RH  088%=      5-min Rain = 0
KREE 270925Z 18012KT 19/16 A2985 RMK A01 T01870164  RH  089%=      5-min Rain = 0
KREE 270930Z 18013KT 19/17 A2985 RMK A01 T01890165  RH  088%=      5-min Rain = 0
KREE 270935Z 18013KT 19/17 A2985 RMK A01 T01900166  RH  088%=      5-min Rain = 0
KREE 270940Z 18012G17KT 19/17 A2986 RMK A01 T01900166  RH  088%=      5-min Rain = 0
KREE 270945Z 18012KT 19/17 A2986 RMK A01 T01880166  RH  089%=      5-min Rain = 0
KREE 270950Z 18012KT 19/17 A2986 RMK A01 T01880166  RH  089%=      5-min Rain = 0
KREE 270955Z 18011KT 19/17 A2986 RMK A01 T01880166  RH  089%=      5-min Rain = 0
KREE 271000Z 18011KT 19/17 A2986 RMK A01 T01860165  RH  090%=      5-min Rain = 0
KREE 271005Z 18011KT 19/17 A2986 RMK A01 T01850165  RH  090%=      5-min Rain = 0
KREE 271010Z 18010KT 19/17 A2986 RMK A01 T01850165  RH  090%=      5-min Rain = 0
KREE 271015Z 18010KT 18/16 A2986 RMK A01 T01830164  RH  091%=      5-min Rain = 0
KREE 271020Z 18009KT 18/16 A2986 RMK A01 T01820164  RH  091%=      5-min Rain = 0
KREE 271025Z 18010KT 18/16 A2986 RMK A01 T01810164  RH  091%=      5-min Rain = 0
KREE 271030Z 18009KT 18/16 A2986 RMK A01 T01810163  RH  092%=      5-min Rain = 0
KREE 271035Z 18009KT 18/16 A2986 RMK A01 T01800164  RH  092%=      5-min Rain = 0
KREE 271040Z 18010KT 18/16 A2986 RMK A01 T01810164  RH  092%=      5-min Rain = 0
KREE 271045Z 18010KT 18/16 A2987 RMK A01 T01810164  RH  092%=      5-min Rain = 0
KREE 271050Z 18010KT 18/16 A2987 RMK A01 T01810164  RH  092%=      5-min Rain = 0
KREE 271055Z 19011KT 18/17 A2987 RMK A01 T01810165  RH  092%=      5-min Rain = 0
KREE 271100Z 19010KT 18/17 A2987 RMK A01 T01810165  RH  092%=      5-min Rain = 0
KREE 271105Z 19011KT 18/17 A2987 RMK A01 T01810165  RH  093%=      5-min Rain = 0
KREE 271110Z 19011KT 18/17 A2987 RMK A01 T01820165  RH  092%=      5-min Rain = 0
KREE 271115Z 19010KT 18/17 A2987 RMK A01 T01810165  RH  093%=      5-min Rain = 0
KREE 271120Z 19010KT 18/17 A2987 RMK A01 T01810166  RH  093%=      5-min Rain = 0
KREE 271125Z 19010KT 18/17 A2987 RMK A01 T01800166  RH  093%=      5-min Rain = 0
KREE 271130Z 19011KT 18/17 A2988 RMK A01 T01810166  RH  093%=      5-min Rain = 0
KREE 271135Z 19011KT 18/17 A2988 RMK A01 T01800166  RH  093%=      5-min Rain = 0
KREE 271140Z 19011KT 18/17 A2987 RMK A01 T01800166  RH  094%=      5-min Rain = 0
KREE 271145Z 19010KT 18/17 A2987 RMK A01 T01790166  RH  094%=      5-min Rain = 0
KREE 271150Z 19010KT 18/17 A2987 RMK A01 T01790165  RH  094%=      5-min Rain = 0
KREE 271155Z 19010KT 18/17 A2988 RMK A01 T01780165  RH  094%=      5-min Rain = 0
KREE 271200Z 18010KT 18/17 A2988 RMK A01 T01770165  RH  095%=      5-min Rain = 0
KREE 271205Z 18010KT 18/17 A2988 RMK A01 T01780166  RH  095%=      5-min Rain = 0
KREE 271210Z 19010KT 18/17 A2988 RMK A01 T01780166  RH  095%=      5-min Rain = 0
KREE 271215Z 18010KT 18/17 A2988 RMK A01 T01790167  RH  095%=      5-min Rain = 0
KREE 271220Z 19010KT 18/17 A2988 RMK A01 T01800168  RH  095%=      5-min Rain = 0
KREE 271225Z 19010KT 18/17 A2988 RMK A01 T01810168  RH  094%=      5-min Rain = 0
KREE 271230Z 19010KT 18/17 A2988 RMK A01 T01820169  RH  094%=      5-min Rain = 0
KREE 271235Z 19010KT 18/17 A2988 RMK A01 T01820169  RH  094%=      5-min Rain = 0
KREE 271240Z 19010KT 18/17 A2989 RMK A01 T01830170  RH  094%=      5-min Rain = 0
KREE 271245Z 19010KT 18/17 A2989 RMK A01 T01840171  RH  094%=      5-min Rain = 0
KREE 271250Z 19010KT 19/17 A2989 RMK A01 T01860172  RH  094%=      5-min Rain = 0
KREE 271255Z 19010KT 19/17 A2989 RMK A01 T01870173  RH  094%=      5-min Rain = 0
KREE 271300Z 19011KT 19/17 A299 RMK A01 T01880173  RH  093%=      5-min Rain = 0
KREE 271305Z 19011KT 19/17 A299 RMK A01 T01890174  RH  093%=      5-min Rain = 0
KREE 271310Z 19011KT 19/18 A299 RMK A01 T01910175  RH  093%=      5-min Rain = 0
KREE 271315Z 19011KT 19/18 A299 RMK A01 T01930176  RH  092%=      5-min Rain = 0
KREE 271320Z 19012KT 20/18 A299 RMK A01 T01950177  RH  092%=      5-min Rain = 0
KREE 271325Z 19011KT 20/18 A2989 RMK A01 T01970178  RH  091%=      5-min Rain = 0
KREE 271330Z 19011KT 20/18 A2989 RMK A01 T01980178  RH  090%=      5-min Rain = 0
KREE 271335Z 19011KT 20/18 A2989 RMK A01 T02000179  RH  090%=      5-min Rain = 0
KREE 271340Z 20011KT 20/18 A2989 RMK A01 T02010179  RH  090%=      5-min Rain = 0
KREE 271345Z 19011KT 20/18 A299 RMK A01 T02020180  RH  089%=      5-min Rain = 0
KREE 271350Z 20013KT 20/18 A299 RMK A01 T02020179  RH  089%=      5-min Rain = 0
KREE 271355Z 20012KT 20/18 A2989 RMK A01 T02040180  RH  088%=      5-min Rain = 0
KREE 271400Z 20012KT 21/18 A299 RMK A01 T02070181  RH  088%=      5-min Rain = 0
KREE 271405Z 21013KT 21/18 A2989 RMK A01 T02080180  RH  086%=      5-min Rain = 0
KREE 271410Z 21012G19KT 21/18 A2989 RMK A01 T02100181  RH  085%=      5-min Rain = 0
KREE 271415Z 21014KT 21/18 A2989 RMK A01 T02120178  RH  083%=      5-min Rain = 0
KREE 271420Z 22014KT 21/18 A2989 RMK A01 T02140180  RH  083%=      5-min Rain = 0
KREE 271425Z 21013KT 22/18 A2989 RMK A01 T02180182  RH  082%=      5-min Rain = 0
KREE 271430Z 21013KT 22/18 A2989 RMK A01 T02200181  RH  081%=      5-min Rain = 0
KREE 271435Z 22014KT 22/18 A2989 RMK A01 T02220178  RH  078%=      5-min Rain = 0
KREE 271440Z 22013KT 22/18 A2989 RMK A01 T02240178  RH  077%=      5-min Rain = 0
KREE 271445Z 22012KT 23/18 A2989 RMK A01 T02260177  RH  076%=      5-min Rain = 0
KREE 271450Z 23013KT 23/18 A2989 RMK A01 T02280176  RH  074%=      5-min Rain = 0
KREE 271455Z 22012KT 23/18 A2989 RMK A01 T02310175  RH  073%=      5-min Rain = 0
KREE 271500Z 23011KT 23/18 A2989 RMK A01 T02340175  RH  071%=      5-min Rain = 0
KREE 271505Z 23012KT 24/17 A2989 RMK A01 T02360173  RH  070%=      5-min Rain = 0
KREE 271510Z 23011KT 24/17 A2989 RMK A01 T02380174  RH  069%=      5-min Rain = 0
KREE 271515Z 24012KT 24/17 A2989 RMK A01 T02400167  RH  065%=      5-min Rain = 0
KREE 271520Z 23012KT 24/17 A2989 RMK A01 T02410166  RH  065%=      5-min Rain = 0
KREE 271525Z 23011KT 24/17 A2989 RMK A01 T02430165  RH  063%=      5-min Rain = 0
KREE 271530Z 23010G15KT 25/17 A2989 RMK A01 T02470166  RH  062%=      5-min Rain = 0
KREE 271535Z 23012KT 25/16 A2989 RMK A01 T02480158  RH  059%=      5-min Rain = 0
KREE 271540Z 23012G17KT 25/16 A2989 RMK A01 T02480155  RH  057%=      5-min Rain = 0
KREE 271545Z 24011KT 25/16 A2989 RMK A01 T02500158  RH  058%=      5-min Rain = 0
KREE 271550Z 23010KT 25/16 A2989 RMK A01 T02540160  RH  057%=      5-min Rain = 0
KREE 271555Z 23011KT 26/15 A2989 RMK A01 T02550154  RH  055%=      5-min Rain = 0
KREE 271600Z 23011KT 26/15 A2989 RMK A01 T02580152  RH  053%=      5-min Rain = 0
KREE 271605Z 23012KT 26/14 A2989 RMK A01 T02620144  RH  049%=      5-min Rain = 0
KREE 271610Z 25011KT 27/14 A2989 RMK A01 T02660139  RH  046%=      5-min Rain = 0
KREE 271615Z 24010KT 27/13 A2989 RMK A01 T02690133  RH  044%=      5-min Rain = 0
KREE 271620Z 25010G15KT 27/13 A2989 RMK A01 T02720127  RH  042%=      5-min Rain = 0
KREE 271625Z 25009KT 28/12 A2989 RMK A01 T02750124  RH  040%=      5-min Rain = 0
KREE 271630Z 24011G16KT 28/10 A2989 RMK A01 T02760104  RH  035%=      5-min Rain = 0
KREE 271635Z 24010G15KT 28/10 A2988 RMK A01 T02790099  RH  033%=      5-min Rain = 0
KREE 271640Z 26012KT 28/09 A2988 RMK A01 T02810090  RH  031%=      5-min Rain = 0
KREE 271645Z 26012G17KT 28/08 A2988 RMK A01 T02810084  RH  030%=      5-min Rain = 0
KREE 271650Z 26011KT 28/09 A2988 RMK A01 T02840086  RH  029%=      5-min Rain = 0
KREE 271655Z 25011KT 29/08 A2988 RMK A01 T02860077  RH  027%=      5-min Rain = 0
KREE 271700Z 25012KT 29/07 A2988 RMK A01 T02890067  RH  025%=      5-min Rain = 0
KREE 271705Z 25013KT 29/06 A2987 RMK A01 T02890063  RH  024%=      5-min Rain = 0
KREE 271710Z 25013G18KT 29/05 A2987 RMK A01 T02900046  RH  021%=      5-min Rain = 0
KREE 271715Z 25012KT 29/05 A2987 RMK A01 T02910052  RH  022%=      5-min Rain = 0
KREE 271720Z 24011KT 29/06 A2987 RMK A01 T02920058  RH  023%=      5-min Rain = 0
KREE 271725Z 24012G19KT 30/06 A2987 RMK A01 T02950064  RH  024%=      5-min Rain = 0
KREE 271730Z 23013KT 30/06 A2987 RMK A01 T02960055  RH  022%=      5-min Rain = 0
KREE 271735Z 24012G17KT 30/04 A2986 RMK A01 T02960044  RH  020%=      5-min Rain = 0
KREE 271740Z 24014G19KT 30/04 A2986 RMK A01 T02960042  RH  020%=      5-min Rain = 0
KREE 271745Z 22013G18KT 30/05 A2986 RMK A01 T02970049  RH  021%=      5-min Rain = 0
KREE 271750Z 24013G18KT 30/05 A2986 RMK A01 T02990049  RH  021%=      5-min Rain = 0
KREE 271755Z 24013G18KT 30/05 A2986 RMK A01 T03000047  RH  020%=      5-min Rain = 0
KREE 271800Z 23013G18KT 30/05 A2986 RMK A01 T03000046  RH  020%=      5-min Rain = 0
KREE 271805Z 22013KT 30/06 A2986 RMK A01 T03010055  RH  022%=      5-min Rain = 0
KREE 271810Z 22013G18KT 30/05 A2986 RMK A01 T03010054  RH  021%=      5-min Rain = 0
KREE 271815Z 24012KT 30/04 A2986 RMK A01 T03010044  RH  020%=      5-min Rain = 0
KREE 271820Z 21013G19KT 30/05 A2985 RMK A01 T03020049  RH  021%=      5-min Rain = 0
KREE 271825Z 20016KT 30/06 A2985 RMK A01 T03020062  RH  022%=      5-min Rain = 0
KREE 271830Z 20013G19KT 30/05 A2985 RMK A01 T03020051  RH  021%=      5-min Rain = 0
KREE 271835Z 21015G22KT 30/05 A2985 RMK A01 T03040049  RH  020%=      5-min Rain = 0
KREE 271840Z 21017KT 30/05 A2985 RMK A01 T03040047  RH  020%=      5-min Rain = 0
KREE 271845Z 21015G21KT 31/06 A2985 RMK A01 T03050055  RH  021%=      5-min Rain = 0
KREE 271850Z 21013G21KT 31/05 A2984 RMK A01 T03050049  RH  020%=      5-min Rain = 0
KREE 271855Z 21017G22KT 31/04 A2984 RMK A01 T03060042  RH  019%=      5-min Rain = 0
KREE 271900Z 21015G20KT 31/04 A2984 RMK A01 T03050043  RH  019%=      5-min Rain = 0
KREE 271905Z 22015G22KT 31/05 A2983 RMK A01 T03080048  RH  020%=      5-min Rain = 0
KREE 271910Z 21013G19KT 31/05 A2983 RMK A01 T03080052  RH  020%=      5-min Rain = 0
KREE 271915Z 20015G20KT 31/05 A2983 RMK A01 T03080052  RH  020%=      5-min Rain = 0
KREE 271920Z 19015KT 31/06 A2982 RMK A01 T03100057  RH  021%=      5-min Rain = 0
KREE 271925Z 20013G19KT 31/06 A2982 RMK A01 T03100057  RH  021%=      5-min Rain = 0
KREE 271930Z 20014G21KT 31/06 A2982 RMK A01 T03120060  RH  021%=      5-min Rain = 0
KREE 271935Z 19015G24KT 31/06 A2982 RMK A01 T03120055  RH  020%=      5-min Rain = 0
KREE 271940Z 20018G23KT 31/05 A2981 RMK A01 T03120047  RH  019%=      5-min Rain = 0
KREE 271945Z 19016KT 31/05 A2981 RMK A01 T03140047  RH  019%=      5-min Rain = 0
KREE 271950Z 20017KT 32/05 A2981 RMK A01 T03150054  RH  020%=      5-min Rain = 0
KREE 271955Z 20015KT 32/06 A2981 RMK A01 T03170061  RH  020%=      5-min Rain = 0
KREE 272000Z 20018G24KT 32/05 A298 RMK A01 T03160054  RH  020%=      5-min Rain = 0
KREE 272005Z 19017G22KT 32/05 A298 RMK A01 T03170048  RH  019%=      5-min Rain = 0
KREE 272010Z 17018KT 32/05 A298 RMK A01 T03180048  RH  019%=      5-min Rain = 0
KREE 272015Z 18019KT 32/05 A2979 RMK A01 T03170045  RH  018%=      5-min Rain = 0
KREE 272020Z 20017G22KT 32/06 A2979 RMK A01 T03200056  RH  019%=      5-min Rain = 0
KREE 272025Z 19020G25KT 32/05 A2979 RMK A01 T03200047  RH  018%=      5-min Rain = 0
KREE 272030Z 19021KT 32/04 A2979 RMK A01 T03190039  RH  017%=      5-min Rain = 0
KREE 272035Z 18021G28KT 32/03 A2978 RMK A01 T03200034  RH  017%=      5-min Rain = 0
KREE 272040Z 19021G28KT 32/04 A2978 RMK A01 T03200039  RH  017%=      5-min Rain = 0
KREE 272045Z 19018KT 32/04 A2978 RMK A01 T03210044  RH  018%=      5-min Rain = 0
KREE 272050Z 19020KT 32/05 A2978 RMK A01 T03210045  RH  018%=      5-min Rain = 0
KREE 272055Z 19022G28KT 32/04 A2977 RMK A01 T03200042  RH  018%=      5-min Rain = 0
KREE 272100Z 20021KT 32/04 A2977 RMK A01 T03200041  RH  018%=      5-min Rain = 0
KREE 272105Z 19020G25KT 32/04 A2977 RMK A01 T03200044  RH  018%=      5-min Rain = 0
KREE 272110Z 19019KT 32/05 A2976 RMK A01 T03200048  RH  018%=      5-min Rain = 0
KREE 272115Z 18018KT 32/06 A2976 RMK A01 T03220063  RH  020%=      5-min Rain = 0
KREE 272120Z 18017G24KT 32/07 A2976 RMK A01 T03210070  RH  021%=      5-min Rain = 0
KREE 272125Z 19015G22KT 32/08 A2975 RMK A01 T03220078  RH  022%=      5-min Rain = 0
KREE 272130Z 18018G24KT 32/08 A2975 RMK A01 T03220082  RH  023%=      5-min Rain = 0
KREE 272135Z 19020G27KT 32/07 A2975 RMK A01 T03220071  RH  021%=      5-min Rain = 0
KREE 272140Z 19018KT 32/07 A2975 RMK A01 T03210069  RH  021%=      5-min Rain = 0
KREE 272145Z 19020G28KT 32/07 A2974 RMK A01 T03220071  RH  021%=      5-min Rain = 0
KREE 272150Z 18018G25KT 32/07 A2974 RMK A01 T03210067  RH  021%=      5-min Rain = 0
KREE 272155Z 18020G26KT 32/07 A2974 RMK A01 T03210068  RH  021%=      5-min Rain = 0
KREE 272200Z 18020G27KT 32/05 A2974 RMK A01 T03210051  RH  019%=      5-min Rain = 0
KREE 272205Z 20020G25KT 32/06 A2974 RMK A01 T03210059  RH  020%=      5-min Rain = 0
KREE 272210Z 19019G25KT 32/06 A2974 RMK A01 T03220060  RH  020%=      5-min Rain = 0
KREE 272215Z 19023G28KT 32/05 A2974 RMK A01 T03210054  RH  019%=      5-min Rain = 0
KREE 272220Z 19020KT 32/07 A2973 RMK A01 T03200071  RH  022%=      5-min Rain = 0
KREE 272225Z 17019G25KT 32/10 A2973 RMK A01 T03200103  RH  027%=      5-min Rain = 0
KREE 272230Z 16020KT 32/11 A2973 RMK A01 T03150109  RH  029%=      5-min Rain = 0
KREE 272235Z 16019G26KT 32/11 A2973 RMK A01 T03160110  RH  029%=      5-min Rain = 0
KREE 272240Z 18017G24KT 32/11 A2973 RMK A01 T03180112  RH  029%=      5-min Rain = 0
KREE 272245Z 17018G26KT 32/11 A2972 RMK A01 T03170114  RH  029%=      5-min Rain = 0
KREE 272250Z 17019G24KT 31/11 A2972 RMK A01 T03100113  RH  030%=      5-min Rain = 0
KREE 272255Z 18019G25KT 31/11 A2972 RMK A01 T03120107  RH  029%=      5-min Rain = 0
KREE 272300Z 18016KT 30/11 A2972 RMK A01 T03040112  RH  031%=      5-min Rain = 0
KREE 272305Z 18017G22KT 31/11 A2972 RMK A01 T03100109  RH  030%=      5-min Rain = 0
KREE 272310Z 17019G24KT 30/11 A2972 RMK A01 T03010105  RH  030%=      5-min Rain = 0
KREE 272315Z 17019G26KT 30/11 A2972 RMK A01 T03010107  RH  031%=      5-min Rain = 0
KREE 272320Z 17020G25KT 31/11 A2972 RMK A01 T03060105  RH  029%=      5-min Rain = 0
KREE 272325Z 17019G26KT 30/11 A2972 RMK A01 T03030107  RH  030%=      5-min Rain = 0
KREE 272330Z 17019G24KT 30/11 A2972 RMK A01 T03030112  RH  031%=      5-min Rain = 0
KREE 272335Z 16018G23KT 30/11 A2971 RMK A01 T03030110  RH  031%=      5-min Rain = 0
KREE 272340Z 18017G23KT 31/11 A2972 RMK A01 T03060113  RH  031%=      5-min Rain = 0
KREE 272345Z 17018G24KT 31/11 A2971 RMK A01 T03050110  RH  031%=      5-min Rain = 0
KREE 272350Z 17017KT 30/11 A2971 RMK A01 T02990110  RH  032%=      5-min Rain = 0
KREE 272355Z 17017G23KT 30/11 A2971 RMK A01 T03000109  RH  031%=      5-min Rain = 0
KREE 280000Z 17017KT 30/11 A2971 RMK A01 T03010110  RH  031%=      5-min Rain = 0
KREE 280005Z 17016G21KT 30/11 A2971 RMK A01 T03020113  RH  032%=      5-min Rain = 0
KREE 280010Z 17014G19KT 29/12 A297 RMK A01 T02930115  RH  034%=      5-min Rain = 0
KREE 280015Z 17015KT 30/11 A297 RMK A01 T02980113  RH  032%=      5-min Rain = 0
KREE 280020Z 17015G20KT 30/12 A297 RMK A01 T03010115  RH  032%=      5-min Rain = 0
KREE 280025Z 16016G21KT 30/11 A297 RMK A01 T03020112  RH  032%=      5-min Rain = 0
KREE 280030Z 16016G22KT 30/11 A297 RMK A01 T03010109  RH  031%=      5-min Rain = 0
KREE 280035Z 17016KT 30/11 A297 RMK A01 T02990110  RH  032%=      5-min Rain = 0
KREE 280040Z 17015KT 30/11 A297 RMK A01 T02960112  RH  033%=      5-min Rain = 0
KREE 280045Z 17015KT 29/11 A297 RMK A01 T02940113  RH  033%=      5-min Rain = 0
KREE 280050Z 17014KT 29/12 A297 RMK A01 T02920116  RH  034%=      5-min Rain = 0
KREE 280055Z 17015KT 29/12 A297 RMK A01 T02900117  RH  035%=      5-min Rain = 0
KREE 280100Z 17014KT 29/12 A297 RMK A01 T02890118  RH  035%=      5-min Rain = 0
KREE 280105Z 17014KT 29/12 A297 RMK A01 T02860119  RH  036%=      5-min Rain = 0
KREE 280110Z 17013G18KT 28/12 A297 RMK A01 T02830124  RH  038%=      5-min Rain = 0
KREE 280115Z 17012KT 28/13 A297 RMK A01 T02820128  RH  039%=      5-min Rain = 0
KREE 280120Z 17014KT 28/13 A297 RMK A01 T02800128  RH  040%=      5-min Rain = 0
KREE 280125Z 17013KT 28/13 A297 RMK A01 T02780128  RH  040%=      5-min Rain = 0
KREE 280130Z 17013KT 28/13 A297 RMK A01 T02760128  RH  041%=      5-min Rain = 0
KREE 280135Z 17014KT 28/13 A297 RMK A01 T02750126  RH  040%=      5-min Rain = 0
KREE 280140Z 17014KT 28/13 A297 RMK A01 T02750126  RH  041%=      5-min Rain = 0
KREE 280145Z 16014KT 27/13 A297 RMK A01 T02740126  RH  041%=      5-min Rain = 0
KREE 280150Z 16014KT 27/13 A297 RMK A01 T02730127  RH  041%=      5-min Rain = 0
KREE 280155Z 15016G22KT 27/13 A297 RMK A01 T02700134  RH  044%=      5-min Rain = 0
KREE 280200Z 16018G23KT 27/16 A297 RMK A01 T02700159  RH  052%=      5-min Rain = 0
KREE 280205Z 16018G23KT 27/17 A297 RMK A01 T02680174  RH  058%=      5-min Rain = 0
KREE 280210Z 16019G25KT 27/18 A297 RMK A01 T02680180  RH  060%=      5-min Rain = 0
KREE 280215Z 16020KT 27/18 A297 RMK A01 T02670182  RH  061%=      5-min Rain = 0
KREE 280220Z 16017G25KT 26/18 A297 RMK A01 T02640183  RH  063%=      5-min Rain = 0
KREE 280225Z 16017G22KT 26/18 A297 RMK A01 T02620184  RH  064%=      5-min Rain = 0
KREE 280230Z 15018G24KT 26/18 A297 RMK A01 T02590184  RH  065%=      5-min Rain = 0
KREE 280235Z 15018G23KT 26/18 A297 RMK A01 T02580183  RH  065%=      5-min Rain = 0
KREE 280240Z 15019KT 26/18 A2971 RMK A01 T02570182  RH  065%=      5-min Rain = 0
KREE 280245Z 15018G23KT 26/18 A2971 RMK A01 T02560181  RH  065%=      5-min Rain = 0
KREE 280250Z 16019G25KT 26/18 A2971 RMK A01 T02550180  RH  065%=      5-min Rain = 0
KREE 280255Z 15018G23KT 25/18 A2971 RMK A01 T02530179  RH  065%=      5-min Rain = 0
KREE 280300Z 15021G26KT 25/18 A2971 RMK A01 T02530179  RH  065%=      5-min Rain = 0
KREE 280305Z 16020KT 25/18 A2971 RMK A01 T02520179  RH  066%=      5-min Rain = 0
KREE 280310Z 16018G23KT 25/18 A2971 RMK A01 T02500180  RH  066%=      5-min Rain = 0
KREE 280315Z 16019G26KT 25/18 A2971 RMK A01 T02490180  RH  067%=      5-min Rain = 0
KREE 280320Z 16019G24KT 25/18 A2971 RMK A01 T02480179  RH  067%=      5-min Rain = 0
KREE 280325Z 16020KT 25/18 A2971 RMK A01 T02470179  RH  067%=      5-min Rain = 0
KREE 280330Z 16019G24KT 25/18 A2971 RMK A01 T02460179  RH  068%=      5-min Rain = 0
KREE 280335Z 16020G25KT 25/18 A2971 RMK A01 T02460178  RH  068%=      5-min Rain = 0
KREE 280340Z 16019KT 25/18 A2971 RMK A01 T02450178  RH  068%=      5-min Rain = 0
KREE 280345Z 16019G26KT 24/18 A2971 RMK A01 T02430178  RH  069%=      5-min Rain = 0
KREE 280350Z 16019G25KT 24/18 A2971 RMK A01 T02430179  RH  069%=      5-min Rain = 0
KREE 280355Z 16018KT 24/18 A2972 RMK A01 T02410179  RH  070%=      5-min Rain = 0
KREE 280400Z 16018G24KT 24/18 A2972 RMK A01 T02400180  RH  071%=      5-min Rain = 0
KREE 280405Z 16018G23KT 24/18 A2972 RMK A01 T02400180  RH  071%=      5-min Rain = 0
KREE 280410Z 16017KT 24/18 A2972 RMK A01 T02380180  RH  072%=      5-min Rain = 0
KREE 280415Z 16016G21KT 24/18 A2972 RMK A01 T02370180  RH  072%=      5-min Rain = 0
KREE 280420Z 16016G22KT 24/18 A2972 RMK A01 T02360181  RH  073%=      5-min Rain = 0
KREE 280425Z 16017KT 24/18 A2972 RMK A01 T02370182  RH  073%=      5-min Rain = 0
KREE 280430Z 16018G24KT 24/18 A2972 RMK A01 T02370182  RH  073%=      5-min Rain = 0
KREE 280435Z 16017KT 24/18 A2973 RMK A01 T02360182  RH  074%=      5-min Rain = 0
KREE 280440Z 16017G23KT 24/18 A2973 RMK A01 T02350182  RH  074%=      5-min Rain = 0
KREE 280445Z 16016G21KT 24/18 A2973 RMK A01 T02350182  RH  074%=      5-min Rain = 0
KREE 280450Z 16017KT 24/18 A2973 RMK A01 T02350182  RH  074%=      5-min Rain = 0
KREE 280455Z 16016G22KT 23/18 A2973 RMK A01 T02340182  RH  075%=      5-min Rain = 0

Page generated in 0.0096 seconds.